createdAt,value
2018-06-10T00:02:16.400Z,18.42
2018-06-10T00:04:45.496Z,18.65
2018-06-10T00:07:14.792Z,20.03
2018-06-10T00:09:44.520Z,15.03
2018-06-10T00:12:13.618Z,15.63
2018-06-10T00:14:42.881Z,15.17
2018-06-10T00:17:12.083Z,13.07
2018-06-10T00:19:41.264Z,17.87
2018-06-10T00:22:10.401Z,18.93
2018-06-10T00:24:39.567Z,19.50
2018-06-10T00:27:08.748Z,14.65
2018-06-10T00:29:38.649Z,14.20
2018-06-10T00:32:08.936Z,19.37
2018-06-10T00:34:38.095Z,15.17
2018-06-10T00:37:07.288Z,14.70
2018-06-10T00:39:36.462Z,14.93
2018-06-10T00:42:05.706Z,20.17
2018-06-10T00:44:34.831Z,23.10
2018-06-10T00:47:04.160Z,18.57
2018-06-10T00:49:34.255Z,17.90
2018-06-10T00:52:04.301Z,18.50
2018-06-10T00:54:34.264Z,15.60
2018-06-10T00:57:04.268Z,14.33
2018-06-10T00:59:34.351Z,14.97
2018-06-10T01:02:04.501Z,16.95
2018-06-10T01:04:34.567Z,20.73
2018-06-10T01:07:05.165Z,17.82
2018-06-10T01:09:34.539Z,16.93
2018-06-10T01:12:04.482Z,15.43
2018-06-10T01:14:34.615Z,18.50
2018-06-10T01:17:04.511Z,23.30
2018-06-10T01:19:34.660Z,21.00
2018-06-10T01:22:04.599Z,16.70
2018-06-10T01:24:34.625Z,25.60
2018-06-10T01:27:04.579Z,19.37
2018-06-10T01:29:34.713Z,15.60
2018-06-10T01:32:04.855Z,14.35
2018-06-10T01:34:38.281Z,13.63
2018-06-10T01:37:08.010Z,16.47
2018-06-10T01:39:37.252Z,18.23
2018-06-10T01:42:09.865Z,19.17
2018-06-10T01:44:39.051Z,18.50
2018-06-10T01:47:08.244Z,14.17
2018-06-10T01:49:37.479Z,17.03
2018-06-10T01:54:52.393Z,19.33
2018-06-10T01:57:21.646Z,19.10
2018-06-10T01:59:50.830Z,20.93
2018-06-10T02:02:20.076Z,23.30
2018-06-10T02:04:49.284Z,18.48
2018-06-10T02:07:18.514Z,15.60
2018-06-10T02:09:47.722Z,16.15
2018-06-10T02:12:20.802Z,13.57
2018-06-10T02:14:49.940Z,17.27
2018-06-10T02:17:19.236Z,32.27
2018-06-10T02:19:54.672Z,20.97
2018-06-10T02:22:26.655Z,15.23
2018-06-10T02:24:55.869Z,13.80
2018-06-10T02:27:39.178Z,15.73
2018-06-10T02:30:08.398Z,18.77
2018-06-10T02:32:38.171Z,19.73
2018-06-10T02:35:07.308Z,17.17
2018-06-10T02:37:36.486Z,19.80
2018-06-10T02:40:05.707Z,19.73
2018-06-10T02:42:35.449Z,19.85
2018-06-10T02:45:05.582Z,17.57
2018-06-10T02:47:35.493Z,16.62
2018-06-10T02:50:05.568Z,14.93
2018-06-10T02:52:35.562Z,17.67
2018-06-10T02:55:05.689Z,14.97
2018-06-10T02:57:35.569Z,21.80
2018-06-10T03:00:06.272Z,19.50
2018-06-10T03:02:35.645Z,18.07
2018-06-10T03:05:05.897Z,15.10
2018-06-10T03:07:35.833Z,25.30
2018-06-10T03:10:06.382Z,15.87
2018-06-10T03:12:35.845Z,16.40
2018-06-10T03:15:06.775Z,17.70
2018-06-10T03:17:35.905Z,16.10
2018-06-10T03:20:05.901Z,17.63
2018-06-10T03:22:35.959Z,16.95
2018-06-10T03:25:05.977Z,20.15
2018-06-10T03:27:35.929Z,21.60
2018-06-10T03:30:05.991Z,17.10
2018-06-10T03:32:36.005Z,16.15
2018-06-10T03:35:06.168Z,15.30
2018-06-10T03:37:39.430Z,20.77
2018-06-10T03:40:08.593Z,16.03
2018-06-10T03:42:37.797Z,19.70
2018-06-10T03:45:06.963Z,19.60
2018-06-10T03:47:42.501Z,18.67
2018-06-10T03:50:11.708Z,15.17
2018-06-10T03:52:40.833Z,18.50
2018-06-10T03:55:13.894Z,20.63
2018-06-10T03:57:43.013Z,17.82
2018-06-10T04:00:12.149Z,28.15
2018-06-10T04:02:42.467Z,17.30
2018-06-10T04:05:11.609Z,21.30
2018-06-10T04:07:41.799Z,24.87
2018-06-10T04:10:10.959Z,20.33
2018-06-10T04:12:40.134Z,16.80
2018-06-10T04:15:09.859Z,17.60
2018-06-10T04:17:39.089Z,16.27
2018-06-10T04:20:08.189Z,21.47
2018-06-10T04:22:39.092Z,17.10
2018-06-10T04:25:08.187Z,20.50
2018-06-10T04:27:37.323Z,25.93
2018-06-10T04:30:07.173Z,14.87
2018-06-10T04:32:38.667Z,20.43
2018-06-10T04:35:08.059Z,16.17
2018-06-10T04:37:37.709Z,16.53
2018-06-10T04:40:09.075Z,20.43
2018-06-10T04:42:38.307Z,20.43
2018-06-10T04:45:08.973Z,19.87
2018-06-10T04:47:38.863Z,23.97
2018-06-10T04:50:11.559Z,20.20
2018-06-10T04:52:40.707Z,25.83
2018-06-10T04:55:10.553Z,22.80
2018-06-10T04:57:39.793Z,16.70
2018-06-10T05:00:08.977Z,19.40
2018-06-10T05:02:38.130Z,19.60
2018-06-10T05:05:07.287Z,21.97
2018-06-10T05:07:36.983Z,18.82
2018-06-10T05:10:06.935Z,21.40
2018-06-10T05:12:37.073Z,22.60
2018-06-10T05:15:14.827Z,21.23
2018-06-10T05:17:44.048Z,25.87
2018-06-10T05:20:13.309Z,23.45
2018-06-10T05:22:42.547Z,22.10
2018-06-10T05:25:11.765Z,20.40
2018-06-10T05:27:40.955Z,25.57
2018-06-10T05:30:10.137Z,18.97
2018-06-10T05:32:39.463Z,23.77
2018-06-10T05:35:08.657Z,23.98
2018-06-10T05:37:37.889Z,23.87
2018-06-10T05:40:07.183Z,29.27
2018-06-10T05:42:37.183Z,23.87
2018-06-10T05:45:07.239Z,23.10
2018-06-10T05:47:37.289Z,21.87
2018-06-10T05:50:07.293Z,21.42
2018-06-10T05:52:37.379Z,26.30
2018-06-10T05:55:12.586Z,24.60
2018-06-10T05:57:42.527Z,21.15
2018-06-10T06:00:17.504Z,25.10
2018-06-10T06:02:46.745Z,19.35
2018-06-10T06:05:16.548Z,22.87
2018-06-10T06:07:45.698Z,22.43
2018-06-10T06:10:14.935Z,19.57
2018-06-10T06:12:44.107Z,20.68
2018-06-10T06:15:14.068Z,25.30
2018-06-10T06:17:43.460Z,20.25
2018-06-10T06:20:14.560Z,14.80
2018-06-10T06:22:44.283Z,18.97
2018-06-10T06:25:13.521Z,23.67
2018-06-10T06:27:42.962Z,18.82
2018-06-10T06:30:12.190Z,18.50
2018-06-10T06:32:41.499Z,17.13
2018-06-10T06:35:10.733Z,19.47
2018-06-10T06:37:40.612Z,19.93
2018-06-10T06:40:09.834Z,19.00
2018-06-10T06:42:39.004Z,21.90
2018-06-10T06:45:08.992Z,22.13
2018-06-10T06:47:38.143Z,20.17
2018-06-10T06:50:11.646Z,18.20
2018-06-10T06:52:40.855Z,23.47
2018-06-10T06:55:11.630Z,20.43
2018-06-10T06:57:40.769Z,19.97
2018-06-10T07:00:09.976Z,21.13
2018-06-10T07:02:39.194Z,22.40
2018-06-10T07:05:08.391Z,21.53
2018-06-10T07:07:41.966Z,21.10
2018-06-10T07:10:11.073Z,22.60
2018-06-10T07:12:40.218Z,22.63
2018-06-10T07:15:09.518Z,23.40
2018-06-10T07:17:38.761Z,20.80
2018-06-10T07:20:13.856Z,21.03
2018-06-10T07:22:43.024Z,23.30
2018-06-10T07:25:15.390Z,23.63
2018-06-10T07:27:44.660Z,20.87
2018-06-10T07:30:19.294Z,20.27
2018-06-10T07:32:48.522Z,19.80
2018-06-10T07:35:17.700Z,22.73
2018-06-10T07:37:47.682Z,20.73
2018-06-10T07:40:17.549Z,18.53
2018-06-10T07:42:46.780Z,21.27
2018-06-10T07:45:16.286Z,22.90
2018-06-10T07:47:45.560Z,25.10
2018-06-10T07:50:19.557Z,21.10
2018-06-10T07:52:48.676Z,22.83
2018-06-10T07:55:17.782Z,25.90
2018-06-10T07:57:46.890Z,20.88
2018-06-10T08:00:19.733Z,22.98
2018-06-10T08:02:52.901Z,19.27
2018-06-10T08:05:22.137Z,24.50
2018-06-10T08:07:51.244Z,25.17
2018-06-10T08:10:20.433Z,23.00
2018-06-10T08:12:49.583Z,22.40
2018-06-10T08:15:19.234Z,27.77
2018-06-10T08:17:49.506Z,25.30
2018-06-10T08:20:18.708Z,22.82
2018-06-10T08:22:47.850Z,23.90
2018-06-10T08:25:18.689Z,21.13
2018-06-10T08:27:47.845Z,24.43
2018-06-10T08:30:16.941Z,26.17
2018-06-10T08:32:46.143Z,25.70
2018-06-10T08:35:15.264Z,21.90
2018-06-10T08:37:44.439Z,21.35
2018-06-10T08:40:13.564Z,20.03
2018-06-10T08:42:42.720Z,21.87
2018-06-10T08:45:16.616Z,20.43
2018-06-10T08:47:55.208Z,22.48
2018-06-10T08:50:24.350Z,23.92
2018-06-10T08:52:53.481Z,21.80
2018-06-10T08:57:56.447Z,22.80
2018-06-10T09:00:29.557Z,22.10
2018-06-10T09:02:58.664Z,21.77
2018-06-10T09:05:27.903Z,20.17
2018-06-10T09:08:02.696Z,20.08
2018-06-10T09:10:42.321Z,21.27
2018-06-10T09:13:11.511Z,24.80
2018-06-10T09:15:41.677Z,20.13
2018-06-10T09:18:10.845Z,24.83
2018-06-10T09:20:40.495Z,23.38
2018-06-10T09:23:10.366Z,21.37
2018-06-10T09:25:40.360Z,22.07
2018-06-10T09:28:10.283Z,21.30
2018-06-10T09:30:40.379Z,21.23
2018-06-10T09:33:10.463Z,21.40
2018-06-10T09:35:40.432Z,21.48
2018-06-10T09:38:10.513Z,21.23
2018-06-10T09:40:40.530Z,19.00
2018-06-10T09:43:13.528Z,19.98
2018-06-10T09:45:44.490Z,20.87
2018-06-10T09:48:15.327Z,21.07
2018-06-10T09:50:44.480Z,21.83
2018-06-10T09:53:13.685Z,19.80
2018-06-10T09:55:44.612Z,20.23
2018-06-10T09:58:13.757Z,22.13
2018-06-10T10:00:43.056Z,18.60
2018-06-10T10:03:15.521Z,18.77
2018-06-10T10:05:58.181Z,18.83
2018-06-10T10:08:27.343Z,19.60
2018-06-10T10:11:02.795Z,19.60
2018-06-10T10:13:32.109Z,18.77
2018-06-10T10:16:01.453Z,20.40
2018-06-10T10:18:30.764Z,18.60
2018-06-10T10:20:59.921Z,19.87
2018-06-10T10:23:29.088Z,18.97
2018-06-10T10:25:58.357Z,19.33
2018-06-10T10:28:27.705Z,16.87
2018-06-10T10:30:57.306Z,17.00
2018-06-10T10:33:26.641Z,15.00
2018-06-10T10:36:05.136Z,14.23
2018-06-10T10:38:34.479Z,15.15
2018-06-10T10:41:03.677Z,15.35
2018-06-10T10:43:32.881Z,17.67
2018-06-10T10:46:02.006Z,15.50
2018-06-10T10:48:31.238Z,15.77
2018-06-10T10:51:00.464Z,13.45
2018-06-10T10:53:29.694Z,14.60
2018-06-10T10:55:58.872Z,15.20
2018-06-10T10:58:28.142Z,13.70
2018-06-10T11:00:57.363Z,15.83
2018-06-10T11:03:26.680Z,15.63
2018-06-10T11:05:55.828Z,16.48
2018-06-10T11:08:25.801Z,15.32
2018-06-10T11:10:55.748Z,15.35
2018-06-10T11:13:25.932Z,14.35
2018-06-10T11:15:55.850Z,13.80
2018-06-10T11:18:25.948Z,13.88
2018-06-10T11:20:55.791Z,14.00
2018-06-10T11:23:24.917Z,13.50
2018-06-10T11:25:54.194Z,12.00
2018-06-10T11:28:23.729Z,12.30
2018-06-10T11:30:52.845Z,13.28
2018-06-10T11:33:22.039Z,12.77
2018-06-10T11:36:01.470Z,11.73
2018-06-10T11:38:30.577Z,12.03
2018-06-10T11:40:59.691Z,10.33
2018-06-10T11:43:28.848Z,9.77
2018-06-10T11:45:58.428Z,9.40
2018-06-10T11:48:28.550Z,11.15
2018-06-10T11:50:58.516Z,8.03
2018-06-10T11:53:28.574Z,8.85
2018-06-10T11:55:57.715Z,11.10
2018-06-10T11:58:33.092Z,8.95
2018-06-10T12:01:02.209Z,7.95
2018-06-10T12:03:31.528Z,9.05
2018-06-10T12:06:00.663Z,14.00
2018-06-10T12:08:29.772Z,8.17
2018-06-10T12:10:58.932Z,10.45
2018-06-10T12:13:28.176Z,8.47
2018-06-10T12:15:57.330Z,7.30
2018-06-10T12:18:29.710Z,7.13
2018-06-10T12:20:59.900Z,7.63
2018-06-10T12:23:29.161Z,7.05
2018-06-10T12:25:58.248Z,6.47
2018-06-10T12:28:30.737Z,8.50
2018-06-10T12:30:59.834Z,7.65
2018-06-10T12:33:28.968Z,6.37
2018-06-10T12:35:58.256Z,6.30
2018-06-10T12:38:27.390Z,5.70
2018-06-10T12:40:56.625Z,6.23
2018-06-10T12:45:59.636Z,7.00
2018-06-10T12:48:28.905Z,4.97
2018-06-10T12:50:58.125Z,6.50
2018-06-10T12:53:27.318Z,7.15
2018-06-10T12:55:56.485Z,6.55
2018-06-10T12:58:25.591Z,7.75
2018-06-10T13:00:54.740Z,5.47
2018-06-10T13:03:27.072Z,7.03
2018-06-10T13:05:58.154Z,6.33
2018-06-10T13:08:27.400Z,7.00
2018-06-10T13:10:56.618Z,9.07
2018-06-10T13:13:25.756Z,6.20
2018-06-10T13:15:57.116Z,7.03
2018-06-10T13:18:26.279Z,6.17
2018-06-10T13:20:55.555Z,6.03
2018-06-10T13:23:25.074Z,6.87
2018-06-10T13:25:54.374Z,8.10
2018-06-10T13:28:28.146Z,6.87
2018-06-10T13:30:57.294Z,6.90
2018-06-10T13:33:26.544Z,6.47
2018-06-10T13:36:00.498Z,8.53
2018-06-10T13:38:29.673Z,7.57
2018-06-10T13:40:58.860Z,8.67
2018-06-10T13:43:28.030Z,6.80
2018-06-10T13:45:57.148Z,6.23
2018-06-10T13:48:26.302Z,7.60
2018-06-10T13:50:55.493Z,6.63
2018-06-10T13:53:26.834Z,7.10
2018-06-10T13:55:56.008Z,9.90
2018-06-10T13:58:25.172Z,6.53
2018-06-10T14:00:54.318Z,8.08
2018-06-10T14:03:23.414Z,9.73
2018-06-10T14:05:52.531Z,6.70
2018-06-10T14:08:27.218Z,8.53
2018-06-10T14:10:56.499Z,6.13
2018-06-10T14:13:27.933Z,6.87
2018-06-10T14:15:57.095Z,6.60
2018-06-10T14:18:27.595Z,7.80
2018-06-10T14:20:59.835Z,6.30
2018-06-10T14:23:28.980Z,6.40
2018-06-10T14:25:58.188Z,8.53
2018-06-10T14:28:27.337Z,6.13
2018-06-10T14:30:56.539Z,6.30
2018-06-10T14:33:27.509Z,5.80
2018-06-10T14:35:56.676Z,5.83
2018-06-10T14:38:25.834Z,7.17
2018-06-10T14:40:55.005Z,6.93
2018-06-10T14:43:24.141Z,6.00
2018-06-10T14:45:53.368Z,6.30
2018-06-10T14:48:22.535Z,8.37
2018-06-10T14:50:51.640Z,5.85
2018-06-10T14:53:20.847Z,6.47
2018-06-10T14:55:50.034Z,6.03
2018-06-10T14:58:19.172Z,10.85
2018-06-10T15:00:49.266Z,6.40
2018-06-10T15:03:18.959Z,6.60
2018-06-10T15:05:48.136Z,6.20
2018-06-10T15:08:17.349Z,6.00
2018-06-10T15:13:20.421Z,6.25
2018-06-10T15:15:50.291Z,5.58
2018-06-10T15:18:19.421Z,6.92
2018-06-10T15:20:48.721Z,5.47
2018-06-10T15:23:18.778Z,5.45
2018-06-10T15:25:47.878Z,5.07
2018-06-10T15:28:16.975Z,4.77
2018-06-10T15:30:46.176Z,3.90
2018-06-10T15:33:15.331Z,4.03
2018-06-10T15:35:44.508Z,4.33
2018-06-10T15:38:13.732Z,4.60
2018-06-10T15:40:42.826Z,3.70
2018-06-10T15:43:17.382Z,4.70
2018-06-10T15:45:46.501Z,3.62
2018-06-10T15:48:15.661Z,3.55
2018-06-10T15:50:44.726Z,3.60
2018-06-10T15:53:13.933Z,3.77
2018-06-10T15:55:43.091Z,3.40
2018-06-10T15:58:12.180Z,3.40
2018-06-10T16:00:41.341Z,3.30
2018-06-10T16:03:10.375Z,3.30
2018-06-10T16:06:00.575Z,4.00
2018-06-10T16:08:29.672Z,3.37
2018-06-10T16:10:58.933Z,3.50
2018-06-10T16:13:28.714Z,7.27
2018-06-10T16:15:59.169Z,3.60
2018-06-10T16:18:28.305Z,2.80
2018-06-10T16:20:57.473Z,3.43
2018-06-10T16:23:27.391Z,2.87
2018-06-10T16:25:57.841Z,3.00
2018-06-10T16:28:26.909Z,2.50
2018-06-10T16:30:56.026Z,2.40
2018-06-10T16:33:25.181Z,5.53
2018-06-10T16:35:54.295Z,2.90
2018-06-10T16:38:24.665Z,2.43
2018-06-10T16:40:53.783Z,2.98
2018-06-10T16:43:22.941Z,2.43
2018-06-10T16:45:52.059Z,2.47
2018-06-10T16:48:21.245Z,2.40
2018-06-10T16:50:50.359Z,2.77
2018-06-10T16:53:19.548Z,3.10
2018-06-10T16:55:48.713Z,2.40
2018-06-10T16:58:17.813Z,2.53
2018-06-10T17:00:46.997Z,2.43
2018-06-10T17:03:18.290Z,3.27
2018-06-10T17:05:47.516Z,2.93
2018-06-10T17:08:16.665Z,2.03
2018-06-10T17:10:45.878Z,3.70
2018-06-10T17:13:18.851Z,4.90
2018-06-10T17:15:55.896Z,2.20
2018-06-10T17:18:25.043Z,2.45
2018-06-10T17:20:54.137Z,2.50
2018-06-10T17:23:28.473Z,2.50
2018-06-10T17:25:57.751Z,2.47
2018-06-10T17:28:28.124Z,2.43
2018-06-10T17:30:57.226Z,6.80
2018-06-10T17:33:29.839Z,2.97
2018-06-10T17:35:59.754Z,2.50
2018-06-10T17:38:28.838Z,2.23
2018-06-10T17:40:59.691Z,2.70
2018-06-10T17:43:28.770Z,2.40
2018-06-10T17:45:57.914Z,3.07
2018-06-10T17:48:27.086Z,2.40
2018-06-10T17:50:56.221Z,3.62
2018-06-10T17:53:25.369Z,3.07
2018-06-10T17:55:54.525Z,2.67
2018-06-10T17:58:23.701Z,2.60
2018-06-10T18:00:52.897Z,4.97
2018-06-10T18:03:21.991Z,4.08
2018-06-10T18:05:51.163Z,3.57
2018-06-10T18:08:20.308Z,2.75
2018-06-10T18:10:49.451Z,2.50
2018-06-10T18:13:18.627Z,2.23
2018-06-10T18:15:47.816Z,2.90
2018-06-10T18:18:28.991Z,3.97
2018-06-10T18:20:58.203Z,2.40
2018-06-10T18:23:27.331Z,2.57
2018-06-10T18:25:56.494Z,2.80
2018-06-10T18:28:25.591Z,3.00
2018-06-10T18:30:54.778Z,3.50
2018-06-10T18:33:23.910Z,2.90
2018-06-10T18:35:53.214Z,3.80
2018-06-10T18:38:22.419Z,4.00
2018-06-10T18:40:51.605Z,3.17
2018-06-10T18:43:26.316Z,3.90
2018-06-10T18:45:55.559Z,3.03
2018-06-10T18:48:24.787Z,4.50
2018-06-10T18:50:54.021Z,3.27
2018-06-10T18:53:23.197Z,3.50
2018-06-10T18:55:52.339Z,4.35
2018-06-10T18:58:21.516Z,3.77
2018-06-10T19:00:50.713Z,6.13
2018-06-10T19:03:19.937Z,4.73
2018-06-10T19:05:49.069Z,5.77
2018-06-10T19:08:18.774Z,5.50
2018-06-10T19:10:48.031Z,6.00
2018-06-10T19:13:18.095Z,3.70
2018-06-10T19:15:47.318Z,4.77
2018-06-10T19:18:16.637Z,5.33
2018-06-10T19:20:45.939Z,4.07
2018-06-10T19:23:15.081Z,3.97
2018-06-10T19:25:44.245Z,5.13
2018-06-10T19:28:13.544Z,4.37
2018-06-10T19:30:43.082Z,5.53
2018-06-10T19:33:13.463Z,4.60
2018-06-10T19:35:42.963Z,4.53
2018-06-10T19:40:50.152Z,7.33
2018-06-10T19:43:19.638Z,5.40
2018-06-10T19:45:48.766Z,4.92
2018-06-10T19:48:17.978Z,4.50
2018-06-10T19:50:48.907Z,5.42
2018-06-10T19:53:18.160Z,4.70
2018-06-10T19:55:47.398Z,5.17
2018-06-10T19:58:16.561Z,5.10
2018-06-10T20:00:45.843Z,6.57
2018-06-10T20:03:15.091Z,5.20
2018-06-10T20:05:44.443Z,5.43
2018-06-10T20:08:13.584Z,4.83
2018-06-10T20:10:48.832Z,5.30
2018-06-10T20:13:18.276Z,4.60
2018-06-10T20:15:47.535Z,6.83
2018-06-10T20:18:18.674Z,4.50
2018-06-10T20:20:47.846Z,4.70
2018-06-10T20:23:21.826Z,5.60
2018-06-10T20:25:50.934Z,4.93
2018-06-10T20:28:20.132Z,4.83
2018-06-10T20:30:49.345Z,5.90
2018-06-10T20:33:18.666Z,4.90
2018-06-10T20:38:22.586Z,5.83
2018-06-10T20:40:51.779Z,6.30
2018-06-10T20:43:20.973Z,8.13
2018-06-10T20:45:50.129Z,5.87
2018-06-10T20:48:19.397Z,5.95
2018-06-10T20:50:48.543Z,5.60
2018-06-10T20:53:17.620Z,5.30
2018-06-10T20:55:46.901Z,5.30
2018-06-10T20:58:16.060Z,5.30
2018-06-10T21:00:45.193Z,5.10
2018-06-10T21:03:14.346Z,5.27
2018-06-10T21:05:43.454Z,5.40
2018-06-10T21:08:13.713Z,5.50
2018-06-10T21:10:43.508Z,6.23
2018-06-10T21:13:13.602Z,5.50
2018-06-10T21:15:43.718Z,5.75
2018-06-10T21:18:13.673Z,6.40
2018-06-10T21:20:45.400Z,7.70
2018-06-10T21:23:14.611Z,5.90
2018-06-10T21:25:43.720Z,8.53
2018-06-10T21:28:13.633Z,6.33
2018-06-10T21:30:43.706Z,7.05
2018-06-10T21:33:13.717Z,6.53
2018-06-10T21:35:43.675Z,7.62
2018-06-10T21:38:13.724Z,8.30
2018-06-10T21:40:43.713Z,7.23
2018-06-10T21:43:16.676Z,7.57
2018-06-10T21:45:45.889Z,6.43
2018-06-10T21:48:15.031Z,5.70
2018-06-10T21:50:44.104Z,6.80
2018-06-10T21:53:13.812Z,6.92
2018-06-10T21:55:43.876Z,6.70
2018-06-10T21:58:13.953Z,8.13
2018-06-10T22:00:47.115Z,7.10
2018-06-10T22:03:16.944Z,7.07
2018-06-10T22:05:49.089Z,6.73
2018-06-10T22:08:18.186Z,7.77
2018-06-10T22:10:47.396Z,9.10
2018-06-10T22:13:16.655Z,9.30
2018-06-10T22:15:45.885Z,8.47
2018-06-10T22:18:15.754Z,9.70
2018-06-10T22:20:45.127Z,6.83
2018-06-10T22:23:15.070Z,6.87
2018-06-10T22:25:45.404Z,7.63
2018-06-10T22:28:16.029Z,6.97
2018-06-10T22:30:47.116Z,7.67
2018-06-10T22:33:16.657Z,6.63
2018-06-10T22:35:45.770Z,6.37
2018-06-10T22:38:17.976Z,7.80
2018-06-10T22:40:47.107Z,7.93
2018-06-10T22:43:16.435Z,7.53
2018-06-10T22:45:46.325Z,7.50
2018-06-10T22:48:15.473Z,7.60
2018-06-10T22:50:48.429Z,8.23
2018-06-10T22:55:32.794Z,7.50
2018-06-10T22:58:01.947Z,8.20
2018-06-10T23:00:31.093Z,9.10
2018-06-10T23:03:00.252Z,8.13
2018-06-10T23:05:29.384Z,7.78
2018-06-10T23:08:01.029Z,8.73
2018-06-10T23:10:30.239Z,8.20
2018-06-10T23:12:59.528Z,7.93
2018-06-10T23:15:28.644Z,8.33
2018-06-10T23:17:57.744Z,7.43
2018-06-10T23:20:27.488Z,9.23
2018-06-10T23:22:56.638Z,8.40
2018-06-10T23:25:25.718Z,8.10
2018-06-10T23:27:54.776Z,8.03
2018-06-10T23:30:23.858Z,9.20
2018-06-10T23:32:52.950Z,7.70
2018-06-10T23:35:22.026Z,7.70
2018-06-10T23:37:51.219Z,9.50
2018-06-10T23:40:20.290Z,8.93
2018-06-10T23:42:49.472Z,8.85
2018-06-10T23:45:18.590Z,9.40
2018-06-10T23:47:47.688Z,8.23
2018-06-10T23:50:16.806Z,8.70
2018-06-10T23:52:45.926Z,10.40
2018-06-10T23:55:14.984Z,8.20
2018-06-10T23:57:44.574Z,9.65
